createdAt,value
2022-11-21T00:01:45.206Z,4.60
2022-11-21T00:04:11.476Z,5.07
2022-11-21T00:06:37.724Z,5.57
2022-11-21T00:09:03.997Z,5.83
2022-11-21T00:11:30.254Z,5.03
2022-11-21T00:13:56.782Z,3.87
2022-11-21T00:16:23.175Z,5.93
2022-11-21T00:18:49.450Z,4.97
2022-11-21T00:21:16.724Z,4.10
2022-11-21T00:23:43.513Z,5.70
2022-11-21T00:26:10.910Z,7.60
2022-11-21T00:28:37.193Z,4.93
2022-11-21T00:31:04.198Z,5.97
2022-11-21T00:33:30.638Z,4.80
2022-11-21T00:35:56.961Z,4.57
2022-11-21T00:38:24.365Z,6.53
2022-11-21T00:40:50.637Z,5.93
2022-11-21T00:43:16.891Z,6.83
2022-11-21T00:45:43.145Z,11.00
2022-11-21T00:48:09.402Z,9.17
2022-11-21T00:50:35.637Z,9.13
2022-11-21T00:53:01.933Z,9.37
2022-11-21T00:55:28.180Z,10.70
2022-11-21T00:57:54.463Z,12.00
2022-11-21T01:00:20.775Z,13.00
2022-11-21T01:02:47.045Z,13.63
2022-11-21T01:05:13.399Z,14.07
2022-11-21T01:07:39.756Z,12.67
2022-11-21T01:10:06.566Z,13.40
2022-11-21T01:12:32.821Z,12.70
2022-11-21T01:14:59.108Z,12.73
2022-11-21T01:17:25.386Z,14.93
2022-11-21T01:19:51.685Z,14.60
2022-11-21T01:22:17.928Z,15.33
2022-11-21T01:24:44.208Z,14.30
2022-11-21T01:27:10.459Z,13.40
2022-11-21T01:29:36.714Z,15.20
2022-11-21T01:32:03.032Z,14.97
2022-11-21T01:34:29.535Z,15.10
2022-11-21T01:36:56.022Z,15.23
2022-11-21T01:39:22.335Z,14.67
2022-11-21T01:41:48.586Z,14.37
2022-11-21T01:44:20.753Z,14.07
2022-11-21T01:46:47.368Z,13.73
2022-11-21T01:49:33.872Z,14.80
2022-11-21T01:52:02.762Z,14.73
2022-11-21T01:54:31.537Z,14.13
2022-11-21T01:57:03.695Z,14.90
2022-11-21T01:59:32.846Z,14.13
2022-11-21T02:02:01.442Z,13.40
2022-11-21T02:04:29.761Z,14.27
2022-11-21T02:06:56.318Z,16.73
2022-11-21T02:09:22.644Z,14.40
2022-11-21T02:11:54.463Z,16.47
2022-11-21T02:14:20.729Z,15.53
2022-11-21T02:16:47.163Z,14.93
2022-11-21T02:19:18.515Z,15.13
2022-11-21T02:21:55.470Z,14.33
2022-11-21T02:24:39.471Z,13.50
2022-11-21T02:27:05.733Z,13.53
2022-11-21T02:29:32.117Z,14.33
2022-11-21T02:32:05.361Z,14.63
2022-11-21T02:34:32.213Z,14.90
2022-11-21T02:36:58.721Z,14.37
2022-11-21T02:39:36.711Z,15.50
2022-11-21T02:42:09.685Z,15.60
2022-11-21T02:44:40.564Z,15.57
2022-11-21T02:47:06.797Z,15.33
2022-11-21T02:49:47.596Z,14.17
2022-11-21T02:52:13.847Z,17.43
2022-11-21T02:54:40.237Z,15.83
2022-11-21T02:57:06.707Z,17.10
2022-11-21T02:59:32.975Z,15.80
2022-11-21T03:02:00.974Z,15.37
2022-11-21T03:04:27.506Z,15.70
2022-11-21T03:06:53.923Z,15.27
2022-11-21T03:09:20.284Z,16.33
2022-11-21T03:11:46.536Z,13.67
2022-11-21T03:14:12.786Z,17.20
2022-11-21T03:16:39.077Z,16.50
2022-11-21T03:19:05.384Z,16.10
2022-11-21T03:21:31.638Z,16.03
2022-11-21T03:23:57.909Z,17.77
2022-11-21T03:26:24.164Z,15.50
2022-11-21T03:28:50.416Z,15.67
2022-11-21T03:31:16.701Z,14.47
2022-11-21T03:33:42.963Z,15.97
2022-11-21T03:36:09.290Z,16.17
2022-11-21T03:38:35.550Z,16.20
2022-11-21T03:41:06.086Z,16.50
2022-11-21T03:43:32.382Z,16.23
2022-11-21T03:45:58.650Z,14.73
2022-11-21T03:48:24.888Z,16.27
2022-11-21T03:50:51.212Z,15.53
2022-11-21T03:53:17.449Z,15.63
2022-11-21T03:55:43.698Z,15.47
2022-11-21T03:58:09.942Z,15.93
2022-11-21T04:00:36.210Z,15.87
2022-11-21T04:03:02.488Z,16.07
2022-11-21T04:05:28.737Z,15.30
2022-11-21T04:07:55.074Z,14.90
2022-11-21T04:10:21.321Z,13.73
2022-11-21T04:12:47.624Z,13.10
2022-11-21T04:15:14.253Z,14.47
2022-11-21T04:17:40.544Z,14.57
2022-11-21T04:20:07.000Z,13.87
2022-11-21T04:22:33.250Z,13.70
2022-11-21T04:24:59.490Z,13.80
2022-11-21T04:27:25.729Z,12.80
2022-11-21T04:29:51.985Z,15.17
2022-11-21T04:32:18.259Z,13.17
2022-11-21T04:34:44.507Z,16.43
2022-11-21T04:37:11.881Z,13.07
2022-11-21T04:39:38.275Z,15.13
2022-11-21T04:42:04.573Z,14.73
2022-11-21T04:44:31.015Z,14.77
2022-11-21T04:46:59.964Z,14.43
2022-11-21T04:49:28.621Z,15.27
2022-11-21T04:51:54.903Z,16.10
2022-11-21T04:54:21.162Z,15.17
2022-11-21T04:56:47.436Z,13.27
2022-11-21T04:59:13.694Z,15.57
2022-11-21T05:01:40.133Z,13.10
2022-11-21T05:04:06.407Z,13.37
2022-11-21T05:06:32.669Z,14.93
2022-11-21T05:08:58.939Z,12.17
2022-11-21T05:11:43.641Z,13.20
2022-11-21T05:14:09.922Z,12.95
2022-11-21T05:16:36.193Z,13.23
2022-11-21T05:19:02.457Z,12.43
2022-11-21T05:21:28.719Z,12.37
2022-11-21T05:23:54.982Z,14.33
2022-11-21T05:26:21.292Z,12.17
2022-11-21T05:28:48.563Z,12.00
2022-11-21T05:31:14.812Z,12.40
2022-11-21T05:33:41.056Z,13.80
2022-11-21T05:36:07.355Z,12.40
2022-11-21T05:38:33.678Z,13.07
2022-11-21T05:40:59.937Z,10.43
2022-11-21T05:43:44.687Z,10.60
2022-11-21T05:46:11.451Z,10.38
2022-11-21T05:48:37.980Z,8.63
2022-11-21T05:51:04.778Z,11.40
2022-11-21T05:53:31.037Z,10.73
2022-11-21T05:56:00.960Z,11.23
2022-11-21T05:58:28.578Z,11.43
2022-11-21T06:00:59.924Z,10.23
2022-11-21T06:03:27.577Z,9.73
2022-11-21T06:06:07.441Z,10.50
2022-11-21T06:08:38.324Z,10.40
2022-11-21T06:11:05.336Z,10.50
2022-11-21T06:13:33.573Z,13.33
2022-11-21T06:16:01.103Z,11.13
2022-11-21T06:18:28.019Z,10.93
2022-11-21T06:20:54.661Z,11.83
2022-11-21T06:23:20.928Z,11.17
2022-11-21T06:25:47.218Z,11.70
2022-11-21T06:28:13.519Z,10.80
2022-11-21T06:30:39.794Z,11.50
2022-11-21T06:33:06.484Z,11.23
2022-11-21T06:35:33.005Z,10.80
2022-11-21T06:37:59.305Z,11.87
2022-11-21T06:40:25.728Z,11.87
2022-11-21T06:42:52.041Z,9.60
2022-11-21T06:45:18.305Z,10.50
2022-11-21T06:47:44.549Z,10.37
2022-11-21T06:50:10.792Z,8.60
2022-11-21T06:52:37.034Z,10.20
2022-11-21T06:55:03.437Z,9.83
2022-11-21T06:57:29.707Z,10.10
2022-11-21T06:59:55.966Z,12.23
2022-11-21T07:02:22.196Z,11.10
2022-11-21T07:04:48.543Z,11.73
2022-11-21T07:07:14.806Z,12.23
2022-11-21T07:09:41.066Z,27.17
2022-11-21T07:12:26.245Z,9.43
2022-11-21T07:14:52.498Z,10.00
2022-11-21T07:17:18.762Z,10.40
2022-11-21T07:19:45.016Z,10.93
2022-11-21T07:22:11.282Z,11.57
2022-11-21T07:24:37.828Z,10.77
2022-11-21T07:27:04.097Z,11.07
2022-11-21T07:29:30.726Z,11.37
2022-11-21T07:31:57.105Z,9.30
2022-11-21T07:34:23.362Z,9.93
2022-11-21T07:36:49.601Z,11.17
2022-11-21T07:39:15.916Z,10.57
2022-11-21T07:41:42.196Z,10.37
2022-11-21T07:44:08.460Z,10.60
2022-11-21T07:46:34.701Z,10.60
2022-11-21T07:49:03.522Z,11.37
2022-11-21T07:51:30.171Z,10.43
2022-11-21T07:53:56.417Z,11.00
2022-11-21T07:56:26.322Z,9.90
2022-11-21T07:58:52.816Z,8.87
2022-11-21T08:01:19.098Z,11.23
2022-11-21T08:03:45.394Z,10.87
2022-11-21T08:06:12.559Z,10.23
2022-11-21T08:08:38.821Z,10.50
2022-11-21T08:11:05.881Z,11.50
2022-11-21T08:13:32.389Z,9.87
2022-11-21T08:15:58.658Z,9.03
2022-11-21T08:18:24.919Z,10.50
2022-11-21T08:20:51.175Z,9.83
2022-11-21T08:23:17.412Z,10.80
2022-11-21T08:25:43.683Z,8.57
2022-11-21T08:28:10.689Z,9.83
2022-11-21T08:30:37.352Z,8.73
2022-11-21T08:33:03.761Z,9.23
2022-11-21T08:35:30.274Z,9.27
2022-11-21T08:37:57.229Z,8.07
2022-11-21T08:40:24.031Z,8.97
2022-11-21T08:42:57.612Z,7.47
2022-11-21T08:45:23.885Z,8.27
2022-11-21T08:47:50.149Z,8.63
2022-11-21T08:50:16.430Z,7.57
2022-11-21T08:52:42.696Z,7.37
2022-11-21T08:55:09.279Z,8.40
2022-11-21T08:57:39.013Z,7.63
2022-11-21T09:00:05.628Z,8.03
2022-11-21T09:02:31.898Z,7.73
2022-11-21T09:04:58.443Z,6.23
2022-11-21T09:07:24.757Z,6.33
2022-11-21T09:09:51.202Z,8.23
2022-11-21T09:12:17.552Z,6.93
2022-11-21T09:15:02.373Z,7.43
2022-11-21T09:17:47.974Z,7.03
2022-11-21T09:22:40.556Z,5.53
2022-11-21T09:25:06.991Z,5.87
2022-11-21T09:27:33.255Z,6.27
2022-11-21T09:29:59.540Z,6.00
2022-11-21T09:32:25.865Z,6.83
2022-11-21T09:34:52.130Z,5.37
2022-11-21T09:37:18.404Z,5.90
2022-11-21T09:39:44.673Z,6.50
2022-11-21T09:42:11.140Z,6.50
2022-11-21T09:44:47.328Z,6.03
2022-11-21T09:47:24.458Z,6.03
2022-11-21T09:49:56.880Z,5.30
2022-11-21T09:52:25.757Z,4.70
2022-11-21T09:54:56.271Z,5.40
2022-11-21T09:57:24.127Z,4.90
2022-11-21T09:59:51.546Z,5.00
2022-11-21T10:02:19.429Z,5.70
2022-11-21T10:04:47.165Z,5.33
2022-11-21T10:07:25.855Z,4.57
2022-11-21T10:09:54.889Z,5.03
2022-11-21T10:12:37.528Z,5.83
2022-11-21T10:15:15.710Z,4.77
2022-11-21T10:17:41.949Z,5.63
2022-11-21T10:20:14.456Z,5.77
2022-11-21T10:22:59.138Z,5.07
2022-11-21T10:25:27.922Z,5.17
2022-11-21T10:27:58.169Z,4.90
2022-11-21T10:30:24.442Z,4.73
2022-11-21T10:32:54.599Z,4.80
2022-11-21T10:35:20.922Z,4.67
2022-11-21T10:37:49.736Z,4.30
2022-11-21T10:40:30.693Z,5.03
2022-11-21T10:43:00.000Z,5.77
2022-11-21T10:45:26.277Z,5.30
2022-11-21T10:47:53.066Z,4.53
2022-11-21T10:50:22.364Z,5.73
2022-11-21T10:52:49.667Z,4.93
2022-11-21T10:55:17.484Z,5.37
2022-11-21T10:57:47.730Z,5.27
2022-11-21T11:00:15.871Z,5.40
2022-11-21T11:02:57.773Z,5.10
2022-11-21T11:05:24.955Z,5.10
2022-11-21T11:08:10.777Z,4.67
2022-11-21T11:10:38.539Z,4.53
2022-11-21T11:13:46.433Z,5.53
2022-11-21T11:16:15.222Z,5.47
2022-11-21T11:18:47.369Z,4.43
2022-11-21T11:21:18.724Z,5.77
2022-11-21T11:23:45.409Z,5.27
2022-11-21T11:26:28.498Z,4.80
2022-11-21T11:29:24.040Z,5.13
2022-11-21T11:31:53.402Z,4.93
2022-11-21T11:34:19.796Z,5.20
2022-11-21T11:37:00.121Z,4.90
2022-11-21T11:39:29.683Z,4.83
2022-11-21T11:42:37.786Z,4.40
2022-11-21T11:45:31.929Z,4.53
2022-11-21T11:47:59.291Z,4.00
2022-11-21T11:50:51.671Z,4.93
2022-11-21T11:53:17.902Z,4.63
2022-11-21T11:55:47.093Z,3.77
2022-11-21T11:58:17.857Z,5.17
2022-11-21T12:00:46.322Z,4.77
2022-11-21T12:03:18.610Z,3.77
2022-11-21T12:05:56.777Z,3.57
2022-11-21T12:08:41.492Z,4.10
2022-11-21T12:13:55.499Z,3.67
2022-11-21T12:16:23.451Z,4.57
2022-11-21T12:18:55.747Z,6.27
2022-11-21T12:21:23.369Z,4.57
2022-11-21T12:23:51.082Z,3.43
2022-11-21T12:26:20.377Z,3.73
2022-11-21T12:28:55.298Z,3.07
2022-11-21T12:31:21.565Z,3.42
2022-11-21T12:34:07.080Z,3.97
2022-11-21T12:36:51.406Z,2.88
2022-11-21T12:39:36.301Z,2.70
2022-11-21T12:42:35.843Z,2.20
2022-11-21T12:45:20.932Z,2.47
2022-11-21T12:48:05.717Z,2.95
2022-11-21T12:51:03.514Z,2.80
2022-11-21T12:53:52.997Z,2.70
2022-11-21T12:56:44.932Z,2.27
2022-11-21T12:59:13.832Z,2.43
2022-11-21T13:01:40.150Z,2.60
2022-11-21T13:04:10.021Z,2.90
2022-11-21T13:06:40.503Z,2.50
2022-11-21T13:09:08.967Z,4.97
2022-11-21T13:11:59.226Z,2.50
2022-11-21T13:14:25.454Z,3.00
2022-11-21T13:17:12.129Z,2.40
2022-11-21T13:19:44.703Z,2.10
2022-11-21T13:22:31.206Z,2.00
2022-11-21T13:24:58.196Z,2.57
2022-11-21T13:27:26.350Z,2.60
2022-11-21T13:30:07.714Z,1.90
2022-11-21T13:32:37.052Z,3.00
2022-11-21T13:35:03.610Z,2.30
2022-11-21T13:37:56.047Z,1.50
2022-11-21T13:40:31.381Z,2.50
2022-11-21T13:45:59.087Z,2.00
2022-11-21T13:48:25.355Z,1.87
2022-11-21T13:51:06.867Z,2.67
2022-11-21T13:53:57.768Z,2.20
2022-11-21T13:56:26.389Z,2.20
2022-11-21T13:58:55.473Z,2.30
2022-11-21T14:01:28.150Z,2.10
2022-11-21T14:04:12.907Z,2.90
2022-11-21T14:06:43.089Z,2.97
2022-11-21T14:09:15.486Z,2.23
2022-11-21T14:11:49.742Z,2.23
2022-11-21T14:14:49.601Z,2.13
2022-11-21T14:17:34.255Z,2.37
2022-11-21T14:20:02.575Z,2.30
2022-11-21T14:22:35.126Z,2.30
2022-11-21T14:25:06.887Z,3.05
2022-11-21T14:27:40.903Z,2.77
2022-11-21T14:30:30.013Z,2.47
2022-11-21T14:32:56.332Z,2.30
2022-11-21T14:35:23.744Z,2.10
2022-11-21T14:37:50.799Z,2.97
2022-11-21T14:40:21.452Z,3.13
2022-11-21T14:42:47.741Z,2.10
2022-11-21T14:45:21.746Z,2.83
2022-11-21T14:47:49.105Z,3.13
2022-11-21T14:50:22.195Z,2.37
2022-11-21T14:52:56.872Z,3.30
2022-11-21T14:55:32.482Z,2.40
2022-11-21T14:58:03.333Z,2.10
2022-11-21T15:00:57.917Z,2.97
2022-11-21T15:03:19.008Z,2.33
2022-11-21T15:06:05.197Z,2.73
2022-11-21T15:11:23.655Z,2.03
2022-11-21T15:16:40.363Z,2.47
2022-11-21T15:19:10.177Z,2.83
2022-11-21T15:21:36.508Z,2.63
2022-11-21T15:24:16.283Z,2.40
2022-11-21T15:26:42.747Z,2.07
2022-11-21T15:29:17.603Z,3.23
2022-11-21T15:31:44.067Z,3.50
2022-11-21T15:34:34.310Z,3.20
2022-11-21T15:37:12.081Z,3.20
2022-11-21T15:39:42.706Z,2.63
2022-11-21T15:42:27.726Z,2.67
2022-11-21T15:45:01.249Z,3.72
2022-11-21T15:47:28.430Z,2.10
2022-11-21T15:49:54.952Z,2.87
2022-11-21T15:52:21.269Z,2.70
2022-11-21T15:54:48.262Z,2.60
2022-11-21T15:57:16.758Z,2.77
2022-11-21T15:59:43.735Z,2.70
2022-11-21T16:02:12.266Z,2.80
2022-11-21T16:04:38.509Z,2.60
2022-11-21T16:07:04.885Z,2.80
2022-11-21T16:09:31.392Z,2.83
2022-11-21T16:11:57.803Z,3.13
2022-11-21T16:14:24.069Z,3.23
2022-11-21T16:16:50.325Z,2.73
2022-11-21T16:19:16.591Z,3.10
2022-11-21T16:21:42.963Z,3.77
2022-11-21T16:24:09.253Z,4.00
2022-11-21T16:26:35.605Z,2.80
2022-11-21T16:29:05.179Z,3.13
2022-11-21T16:31:31.995Z,4.13
2022-11-21T16:33:59.263Z,3.37
2022-11-21T16:36:26.461Z,3.60
2022-11-21T16:38:53.272Z,4.57
2022-11-21T16:41:20.529Z,2.93
2022-11-21T16:43:47.976Z,3.10
2022-11-21T16:46:14.797Z,3.10
2022-11-21T16:48:41.715Z,3.50
2022-11-21T16:51:28.249Z,2.77
2022-11-21T16:53:54.546Z,4.40
2022-11-21T16:56:20.800Z,3.47
2022-11-21T16:58:47.202Z,3.73
2022-11-21T17:01:15.297Z,3.40
2022-11-21T17:03:42.794Z,3.20
2022-11-21T17:06:09.710Z,3.23
2022-11-21T17:08:36.467Z,3.03
2022-11-21T17:11:16.914Z,3.20
2022-11-21T17:13:43.722Z,3.13
2022-11-21T17:16:10.654Z,2.40
2022-11-21T17:18:36.909Z,2.93
2022-11-21T17:21:04.713Z,2.77
2022-11-21T17:23:31.729Z,3.87
2022-11-21T17:26:01.978Z,4.00
2022-11-21T17:28:28.278Z,2.70
2022-11-21T17:30:54.540Z,3.30
2022-11-21T17:33:21.790Z,3.40
2022-11-21T17:35:48.040Z,4.23
2022-11-21T17:38:14.362Z,3.27
2022-11-21T17:40:40.625Z,3.17
2022-11-21T17:43:06.865Z,2.80
2022-11-21T17:45:34.682Z,3.70
2022-11-21T17:48:00.930Z,3.03
2022-11-21T17:50:27.186Z,2.90
2022-11-21T17:52:53.514Z,3.87
2022-11-21T17:55:19.781Z,3.03
2022-11-21T17:57:46.950Z,3.17
2022-11-21T18:00:13.601Z,3.03
2022-11-21T18:02:40.135Z,3.67
2022-11-21T18:05:06.512Z,3.93
2022-11-21T18:07:33.945Z,3.37
2022-11-21T18:10:20.406Z,2.80
2022-11-21T18:12:46.541Z,4.70
2022-11-21T18:15:12.800Z,3.90
2022-11-21T18:17:39.031Z,3.40
2022-11-21T18:20:05.494Z,3.90
2022-11-21T18:22:31.754Z,4.27
2022-11-21T18:24:57.994Z,2.93
2022-11-21T18:27:25.254Z,4.47
2022-11-21T18:29:51.532Z,3.80
2022-11-21T18:32:17.881Z,3.50
2022-11-21T18:34:44.168Z,3.37
2022-11-21T18:37:10.605Z,4.00
2022-11-21T18:39:36.845Z,3.40
2022-11-21T18:42:03.135Z,5.13
2022-11-21T18:44:29.437Z,6.60
2022-11-21T18:46:55.746Z,3.40
2022-11-21T18:49:22.177Z,3.87
2022-11-21T18:51:48.933Z,2.73
2022-11-21T18:54:15.256Z,3.37
2022-11-21T18:56:41.570Z,3.27
2022-11-21T18:59:07.957Z,3.27
2022-11-21T19:01:35.047Z,2.90
2022-11-21T19:04:01.501Z,2.77
2022-11-21T19:06:28.469Z,3.37
2022-11-21T19:08:55.638Z,3.60
2022-11-21T19:11:24.286Z,5.17
2022-11-21T19:13:50.739Z,3.00
2022-11-21T19:16:18.334Z,3.63
2022-11-21T19:18:54.966Z,3.53
2022-11-21T19:21:31.109Z,4.13
2022-11-21T19:23:57.364Z,3.27
2022-11-21T19:26:23.697Z,3.20
2022-11-21T19:28:50.041Z,3.73
2022-11-21T19:31:17.508Z,3.63
2022-11-21T19:33:44.017Z,3.10
2022-11-21T19:36:14.561Z,2.97
2022-11-21T19:38:44.016Z,5.67
2022-11-21T19:41:17.499Z,4.00
2022-11-21T19:43:45.215Z,3.47
2022-11-21T19:46:15.588Z,4.20
2022-11-21T19:48:42.123Z,4.00
2022-11-21T19:51:08.873Z,3.13
2022-11-21T19:53:36.430Z,2.93
2022-11-21T19:56:09.525Z,3.43
2022-11-21T19:58:36.095Z,4.53
2022-11-21T20:01:09.909Z,3.80
2022-11-21T20:03:36.865Z,3.77
2022-11-21T20:06:04.109Z,3.63
2022-11-21T20:08:30.441Z,4.60
2022-11-21T20:11:04.771Z,3.70
2022-11-21T20:13:31.601Z,3.83
2022-11-21T20:15:57.958Z,4.27
2022-11-21T20:18:24.232Z,10.03
2022-11-21T20:20:50.492Z,3.47
2022-11-21T20:23:16.755Z,4.43
2022-11-21T20:25:43.106Z,4.07
2022-11-21T20:28:11.724Z,3.97
2022-11-21T20:30:38.414Z,3.90
2022-11-21T20:33:09.893Z,5.00
2022-11-21T20:35:39.124Z,3.70
2022-11-21T20:38:05.422Z,4.07
2022-11-21T20:40:31.738Z,3.80
2022-11-21T20:42:59.089Z,3.87
2022-11-21T20:46:07.262Z,3.90
2022-11-21T20:48:14.730Z,3.57
2022-11-21T20:51:56.287Z,3.40
2022-11-21T20:53:51.548Z,5.03
2022-11-21T20:56:19.733Z,3.43
2022-11-21T20:58:46.603Z,3.27
2022-11-21T21:01:14.464Z,4.93
2022-11-21T21:03:40.785Z,4.57
2022-11-21T21:06:08.213Z,4.47
2022-11-21T21:08:34.687Z,3.50
2022-11-21T21:11:30.611Z,3.23
2022-11-21T21:13:57.554Z,4.30
2022-11-21T21:16:25.490Z,3.37
2022-11-21T21:18:53.518Z,3.10
2022-11-21T21:21:22.722Z,3.93
2022-11-21T21:23:56.472Z,4.17
2022-11-21T21:26:24.707Z,5.37
2022-11-21T21:28:51.069Z,3.50
2022-11-21T21:31:18.542Z,4.20
2022-11-21T21:33:45.073Z,5.27
2022-11-21T21:36:15.507Z,4.00
2022-11-21T21:38:42.040Z,3.80
2022-11-21T21:41:13.046Z,3.63
2022-11-21T21:43:39.355Z,6.27
2022-11-21T21:46:06.553Z,3.37
2022-11-21T21:48:33.321Z,3.67
2022-11-21T21:51:06.419Z,4.10
2022-11-21T21:53:35.314Z,4.10
2022-11-21T21:56:01.773Z,4.10
2022-11-21T21:58:28.504Z,3.60
2022-11-21T22:01:01.297Z,3.90
2022-11-21T22:03:27.584Z,4.10
2022-11-21T22:05:53.837Z,3.67
2022-11-21T22:08:20.243Z,5.30
2022-11-21T22:10:46.492Z,4.10
2022-11-21T22:13:12.743Z,4.00
2022-11-21T22:15:39.004Z,4.13
2022-11-21T22:18:05.300Z,4.80
2022-11-21T22:20:31.552Z,4.37
2022-11-21T22:23:00.537Z,5.00
2022-11-21T22:25:27.065Z,4.80
2022-11-21T22:27:53.389Z,5.27
2022-11-21T22:30:19.647Z,6.03
2022-11-21T22:32:45.942Z,4.87
2022-11-21T22:35:12.188Z,5.83
2022-11-21T22:37:38.433Z,5.67
2022-11-21T22:40:04.939Z,5.43
2022-11-21T22:42:31.178Z,5.43
2022-11-21T22:44:57.435Z,5.87
2022-11-21T22:47:23.679Z,5.43
2022-11-21T22:49:49.944Z,5.60
2022-11-21T22:52:16.280Z,5.23
2022-11-21T22:54:42.577Z,4.37
2022-11-21T22:57:08.872Z,4.23
2022-11-21T22:59:35.131Z,5.77
2022-11-21T23:02:01.452Z,5.37
2022-11-21T23:04:27.755Z,5.97
2022-11-21T23:06:54.008Z,4.43
2022-11-21T23:09:20.518Z,5.50
2022-11-21T23:11:46.830Z,5.27
2022-11-21T23:14:13.588Z,4.90
2022-11-21T23:16:39.859Z,5.20
2022-11-21T23:19:06.845Z,4.97
2022-11-21T23:21:33.207Z,5.77
2022-11-21T23:23:59.454Z,4.70
2022-11-21T23:26:25.733Z,4.73
2022-11-21T23:28:52.037Z,4.93
2022-11-21T23:31:18.314Z,6.07
2022-11-21T23:33:44.648Z,5.13
2022-11-21T23:36:10.894Z,6.53
2022-11-21T23:38:37.584Z,4.77
2022-11-21T23:41:03.830Z,5.13
2022-11-21T23:43:30.091Z,5.73
2022-11-21T23:45:56.353Z,5.70
2022-11-21T23:48:24.134Z,5.60
2022-11-21T23:50:51.256Z,5.67
2022-11-21T23:53:17.872Z,6.27
2022-11-21T23:55:44.407Z,5.17
2022-11-21T23:58:11.114Z,5.93
